sensor_id;sensor_type;location;lat;lon;timestamp;temperature;humidity
35647;DHT22;28680;45.642;13.756;2023-09-12T00:00:49;22.70;99.90
35647;DHT22;28680;45.642;13.756;2023-09-12T00:03:19;22.70;99.90
35647;DHT22;28680;45.642;13.756;2023-09-12T00:05:56;22.70;99.90
35647;DHT22;28680;45.642;13.756;2023-09-12T00:08:23;22.60;99.90
35647;DHT22;28680;45.642;13.756;2023-09-12T00:13:28;22.60;99.90
35647;DHT22;28680;45.642;13.756;2023-09-12T00:15:53;22.50;99.90
35647;DHT22;28680;45.642;13.756;2023-09-12T00:18:19;22.50;99.90
35647;DHT22;28680;45.642;13.756;2023-09-12T00:20:45;22.70;99.90
35647;DHT22;28680;45.642;13.756;2023-09-12T00:23:11;22.70;99.90
35647;DHT22;28680;45.642;13.756;2023-09-12T00:25:37;22.70;99.90
35647;DHT22;28680;45.642;13.756;2023-09-12T00:28:02;22.60;99.90
35647;DHT22;28680;45.642;13.756;2023-09-12T00:30:29;22.60;99.90
35647;DHT22;28680;45.642;13.756;2023-09-12T00:32:55;22.70;99.90
35647;DHT22;28680;45.642;13.756;2023-09-12T00:35:21;22.70;99.90
35647;DHT22;28680;45.642;13.756;2023-09-12T00:37:47;22.60;99.90
35647;DHT22;28680;45.642;13.756;2023-09-12T00:40:12;22.70;99.90
35647;DHT22;28680;45.642;13.756;2023-09-12T00:42:38;22.70;99.90
35647;DHT22;28680;45.642;13.756;2023-09-12T00:45:04;22.80;99.90
35647;DHT22;28680;45.642;13.756;2023-09-12T00:47:30;22.70;99.90
35647;DHT22;28680;45.642;13.756;2023-09-12T00:49:58;22.70;99.90
35647;DHT22;28680;45.642;13.756;2023-09-12T00:52:26;22.60;99.90
35647;DHT22;28680;45.642;13.756;2023-09-12T00:54:54;22.70;99.90
35647;DHT22;28680;45.642;13.756;2023-09-12T00:57:21;22.60;99.90
35647;DHT22;28680;45.642;13.756;2023-09-12T00:59:48;22.60;99.90
35647;DHT22;28680;45.642;13.756;2023-09-12T01:02:14;22.50;99.90
35647;DHT22;28680;45.642;13.756;2023-09-12T01:04:41;22.50;99.90
35647;DHT22;28680;45.642;13.756;2023-09-12T01:07:08;22.40;99.90
35647;DHT22;28680;45.642;13.756;2023-09-12T01:09:34;22.40;99.90
35647;DHT22;28680;45.642;13.756;2023-09-12T01:12:00;22.40;99.90
35647;DHT22;28680;45.642;13.756;2023-09-12T01:14:29;22.40;99.90
35647;DHT22;28680;45.642;13.756;2023-09-12T01:16:55;22.50;99.90
35647;DHT22;28680;45.642;13.756;2023-09-12T01:19:21;22.50;99.90
35647;DHT22;28680;45.642;13.756;2023-09-12T01:27:35;22.50;99.90
35647;DHT22;28680;45.642;13.756;2023-09-12T01:30:07;22.30;99.90
35647;DHT22;28680;45.642;13.756;2023-09-12T01:32:35;22.20;99.90
35647;DHT22;28680;45.642;13.756;2023-09-12T01:35:01;22.10;99.90
35647;DHT22;28680;45.642;13.756;2023-09-12T01:37:33;22.20;99.90
35647;DHT22;28680;45.642;13.756;2023-09-12T01:39:59;22.10;99.90
35647;DHT22;28680;45.642;13.756;2023-09-12T01:42:30;22.00;99.90
35647;DHT22;28680;45.642;13.756;2023-09-12T01:44:57;22.00;99.90
35647;DHT22;28680;45.642;13.756;2023-09-12T01:47:24;22.00;99.90
35647;DHT22;28680;45.642;13.756;2023-09-12T01:49:55;21.90;99.90
35647;DHT22;28680;45.642;13.756;2023-09-12T01:52:23;22.00;99.90
35647;DHT22;28680;45.642;13.756;2023-09-12T01:54:50;21.90;99.90
35647;DHT22;28680;45.642;13.756;2023-09-12T01:57:17;21.90;99.90
35647;DHT22;28680;45.642;13.756;2023-09-12T01:59:47;22.00;99.90
35647;DHT22;28680;45.642;13.756;2023-09-12T02:02:17;21.90;99.90
35647;DHT22;28680;45.642;13.756;2023-09-12T02:05:01;21.80;99.90
35647;DHT22;28680;45.642;13.756;2023-09-12T02:07:31;21.80;99.90
35647;DHT22;28680;45.642;13.756;2023-09-12T02:09:58;21.90;99.90
35647;DHT22;28680;45.642;13.756;2023-09-12T02:12:24;22.00;99.90
35647;DHT22;28680;45.642;13.756;2023-09-12T02:14:49;21.90;99.90
35647;DHT22;28680;45.642;13.756;2023-09-12T02:17:15;21.90;99.90
35647;DHT22;28680;45.642;13.756;2023-09-12T02:19:41;21.90;99.90
35647;DHT22;28680;45.642;13.756;2023-09-12T02:22:07;21.80;99.90
35647;DHT22;28680;45.642;13.756;2023-09-12T02:24:34;21.80;99.90
35647;DHT22;28680;45.642;13.756;2023-09-12T02:27:00;21.80;99.90
35647;DHT22;28680;45.642;13.756;2023-09-12T02:29:26;21.80;99.90
35647;DHT22;28680;45.642;13.756;2023-09-12T02:31:52;21.90;99.90
35647;DHT22;28680;45.642;13.756;2023-09-12T02:34:18;22.00;99.90
35647;DHT22;28680;45.642;13.756;2023-09-12T02:36:44;21.90;99.90
35647;DHT22;28680;45.642;13.756;2023-09-12T02:39:10;21.80;99.90
35647;DHT22;28680;45.642;13.756;2023-09-12T02:41:35;21.90;99.90
35647;DHT22;28680;45.642;13.756;2023-09-12T02:44:01;21.80;99.90
35647;DHT22;28680;45.642;13.756;2023-09-12T02:46:27;21.70;99.90
35647;DHT22;28680;45.642;13.756;2023-09-12T02:48:53;21.70;99.90
35647;DHT22;28680;45.642;13.756;2023-09-12T02:51:18;21.60;99.90
35647;DHT22;28680;45.642;13.756;2023-09-12T02:53:44;21.70;99.90
35647;DHT22;28680;45.642;13.756;2023-09-12T02:56:10;21.70;99.90
35647;DHT22;28680;45.642;13.756;2023-09-12T02:58:36;21.80;99.90
35647;DHT22;28680;45.642;13.756;2023-09-12T03:01:02;21.90;99.90
35647;DHT22;28680;45.642;13.756;2023-09-12T03:03:29;21.90;99.90
35647;DHT22;28680;45.642;13.756;2023-09-12T03:06:02;21.60;99.90
35647;DHT22;28680;45.642;13.756;2023-09-12T03:08:30;21.70;99.90
35647;DHT22;28680;45.642;13.756;2023-09-12T03:10:57;21.60;99.90
35647;DHT22;28680;45.642;13.756;2023-09-12T03:13:24;21.60;99.90
35647;DHT22;28680;45.642;13.756;2023-09-12T03:15:51;21.60;99.90
35647;DHT22;28680;45.642;13.756;2023-09-12T03:18:17;21.60;99.90
35647;DHT22;28680;45.642;13.756;2023-09-12T03:20:43;21.70;99.90
35647;DHT22;28680;45.642;13.756;2023-09-12T03:23:09;21.70;99.90
35647;DHT22;28680;45.642;13.756;2023-09-12T03:25:36;21.70;99.90
35647;DHT22;28680;45.642;13.756;2023-09-12T03:28:04;21.70;99.90
35647;DHT22;28680;45.642;13.756;2023-09-12T03:30:35;21.60;99.90
35647;DHT22;28680;45.642;13.756;2023-09-12T03:33:01;21.60;99.90
35647;DHT22;28680;45.642;13.756;2023-09-12T03:35:28;21.70;99.90
35647;DHT22;28680;45.642;13.756;2023-09-12T03:37:54;21.70;99.90
35647;DHT22;28680;45.642;13.756;2023-09-12T03:40:20;21.70;99.90
35647;DHT22;28680;45.642;13.756;2023-09-12T03:42:46;21.60;99.90
35647;DHT22;28680;45.642;13.756;2023-09-12T03:45:12;21.60;99.90
35647;DHT22;28680;45.642;13.756;2023-09-12T03:47:38;21.70;99.90
35647;DHT22;28680;45.642;13.756;2023-09-12T03:50:04;21.60;99.90
35647;DHT22;28680;45.642;13.756;2023-09-12T03:52:30;21.70;99.90
35647;DHT22;28680;45.642;13.756;2023-09-12T03:54:56;21.70;99.90
35647;DHT22;28680;45.642;13.756;2023-09-12T03:57:22;21.70;99.90
35647;DHT22;28680;45.642;13.756;2023-09-12T03:59:48;21.70;99.90
35647;DHT22;28680;45.642;13.756;2023-09-12T04:02:14;21.60;99.90
35647;DHT22;28680;45.642;13.756;2023-09-12T04:04:40;21.60;99.90
35647;DHT22;28680;45.642;13.756;2023-09-12T04:07:06;21.60;99.90
35647;DHT22;28680;45.642;13.756;2023-09-12T04:09:32;21.40;99.90
35647;DHT22;28680;45.642;13.756;2023-09-12T04:11:58;21.40;99.90
35647;DHT22;28680;45.642;13.756;2023-09-12T04:14:24;21.40;99.90
35647;DHT22;28680;45.642;13.756;2023-09-12T04:16:50;21.50;99.90
35647;DHT22;28680;45.642;13.756;2023-09-12T04:19:16;21.50;99.90
35647;DHT22;28680;45.642;13.756;2023-09-12T04:21:42;21.50;99.90
35647;DHT22;28680;45.642;13.756;2023-09-12T04:24:08;21.50;99.90
35647;DHT22;28680;45.642;13.756;2023-09-12T04:26:34;21.50;99.90
35647;DHT22;28680;45.642;13.756;2023-09-12T04:29:00;21.50;99.90
35647;DHT22;28680;45.642;13.756;2023-09-12T04:31:27;21.50;99.90
35647;DHT22;28680;45.642;13.756;2023-09-12T04:33:53;21.50;99.90
35647;DHT22;28680;45.642;13.756;2023-09-12T04:36:20;21.40;99.90
35647;DHT22;28680;45.642;13.756;2023-09-12T04:38:46;21.50;99.90
35647;DHT22;28680;45.642;13.756;2023-09-12T04:41:13;21.40;99.90
35647;DHT22;28680;45.642;13.756;2023-09-12T04:43:42;21.40;99.90
35647;DHT22;28680;45.642;13.756;2023-09-12T04:46:10;21.40;99.90
35647;DHT22;28680;45.642;13.756;2023-09-12T04:48:38;21.40;99.90
35647;DHT22;28680;45.642;13.756;2023-09-12T04:51:04;21.40;99.90
35647;DHT22;28680;45.642;13.756;2023-09-12T04:53:30;21.40;99.90
35647;DHT22;28680;45.642;13.756;2023-09-12T04:56:04;21.50;99.90
35647;DHT22;28680;45.642;13.756;2023-09-12T04:58:32;21.40;99.90
35647;DHT22;28680;45.642;13.756;2023-09-12T05:00:58;21.40;99.90
35647;DHT22;28680;45.642;13.756;2023-09-12T05:03:24;21.50;99.90
35647;DHT22;28680;45.642;13.756;2023-09-12T05:05:50;21.50;99.90
35647;DHT22;28680;45.642;13.756;2023-09-12T05:08:17;21.50;99.90
35647;DHT22;28680;45.642;13.756;2023-09-12T05:10:44;21.50;99.90
35647;DHT22;28680;45.642;13.756;2023-09-12T05:13:10;21.40;99.90
35647;DHT22;28680;45.642;13.756;2023-09-12T05:15:37;21.50;99.90
35647;DHT22;28680;45.642;13.756;2023-09-12T05:18:08;21.50;99.90
35647;DHT22;28680;45.642;13.756;2023-09-12T05:20:34;21.50;99.90
35647;DHT22;28680;45.642;13.756;2023-09-12T05:23:00;21.50;99.90
35647;DHT22;28680;45.642;13.756;2023-09-12T05:25:26;21.50;99.90
35647;DHT22;28680;45.642;13.756;2023-09-12T05:27:56;21.50;99.90
35647;DHT22;28680;45.642;13.756;2023-09-12T05:30:22;21.50;99.90
35647;DHT22;28680;45.642;13.756;2023-09-12T05:32:48;21.50;99.90
35647;DHT22;28680;45.642;13.756;2023-09-12T05:35:14;21.40;99.90
35647;DHT22;28680;45.642;13.756;2023-09-12T05:37:40;21.60;99.90
35647;DHT22;28680;45.642;13.756;2023-09-12T05:40:06;21.50;99.90
35647;DHT22;28680;45.642;13.756;2023-09-12T05:42:32;21.30;99.90
35647;DHT22;28680;45.642;13.756;2023-09-12T05:44:58;21.50;99.90
35647;DHT22;28680;45.642;13.756;2023-09-12T05:47:24;21.60;99.90
35647;DHT22;28680;45.642;13.756;2023-09-12T05:49:50;21.60;99.90
35647;DHT22;28680;45.642;13.756;2023-09-12T05:52:16;21.60;99.90
35647;DHT22;28680;45.642;13.756;2023-09-12T05:54:42;21.60;99.90
35647;DHT22;28680;45.642;13.756;2023-09-12T05:57:08;21.70;99.90
35647;DHT22;28680;45.642;13.756;2023-09-12T05:59:37;21.80;99.90
35647;DHT22;28680;45.642;13.756;2023-09-12T06:02:04;21.80;99.90
35647;DHT22;28680;45.642;13.756;2023-09-12T06:04:32;21.60;99.90
35647;DHT22;28680;45.642;13.756;2023-09-12T06:06:58;21.50;99.90
35647;DHT22;28680;45.642;13.756;2023-09-12T06:09:25;21.40;99.90
35647;DHT22;28680;45.642;13.756;2023-09-12T06:11:50;21.40;99.90
35647;DHT22;28680;45.642;13.756;2023-09-12T06:14:16;21.50;99.90
35647;DHT22;28680;45.642;13.756;2023-09-12T06:16:42;21.70;99.90
35647;DHT22;28680;45.642;13.756;2023-09-12T06:19:08;21.70;99.90
35647;DHT22;28680;45.642;13.756;2023-09-12T06:21:33;21.80;99.90
35647;DHT22;28680;45.642;13.756;2023-09-12T06:24:16;21.80;99.90
35647;DHT22;28680;45.642;13.756;2023-09-12T06:26:43;21.90;99.90
35647;DHT22;28680;45.642;13.756;2023-09-12T06:29:09;22.10;99.90
35647;DHT22;28680;45.642;13.756;2023-09-12T06:31:35;22.10;99.90
35647;DHT22;28680;45.642;13.756;2023-09-12T06:34:01;22.30;99.90
35647;DHT22;28680;45.642;13.756;2023-09-12T06:36:28;22.30;99.90
35647;DHT22;28680;45.642;13.756;2023-09-12T06:38:57;22.30;99.90
35647;DHT22;28680;45.642;13.756;2023-09-12T06:41:24;22.40;99.90
35647;DHT22;28680;45.642;13.756;2023-09-12T06:43:50;22.50;99.90
35647;DHT22;28680;45.642;13.756;2023-09-12T06:46:16;22.70;99.90
35647;DHT22;28680;45.642;13.756;2023-09-12T06:48:45;22.80;99.90
35647;DHT22;28680;45.642;13.756;2023-09-12T06:51:12;22.80;99.90
35647;DHT22;28680;45.642;13.756;2023-09-12T06:53:38;22.80;99.90
35647;DHT22;28680;45.642;13.756;2023-09-12T06:56:04;22.90;99.90
35647;DHT22;28680;45.642;13.756;2023-09-12T06:58:31;23.00;99.90
35647;DHT22;28680;45.642;13.756;2023-09-12T07:01:05;23.30;99.90
35647;DHT22;28680;45.642;13.756;2023-09-12T07:03:35;23.30;99.90
35647;DHT22;28680;45.642;13.756;2023-09-12T07:06:01;23.40;99.90
35647;DHT22;28680;45.642;13.756;2023-09-12T07:08:28;23.50;99.90
35647;DHT22;28680;45.642;13.756;2023-09-12T07:10:54;23.50;99.90
35647;DHT22;28680;45.642;13.756;2023-09-12T07:13:21;23.50;99.90
35647;DHT22;28680;45.642;13.756;2023-09-12T07:15:47;23.70;99.90
35647;DHT22;28680;45.642;13.756;2023-09-12T07:18:13;23.90;99.90
35647;DHT22;28680;45.642;13.756;2023-09-12T07:20:40;24.10;99.90
35647;DHT22;28680;45.642;13.756;2023-09-12T07:23:06;24.20;99.90
35647;DHT22;28680;45.642;13.756;2023-09-12T07:25:42;24.30;99.90
35647;DHT22;28680;45.642;13.756;2023-09-12T07:28:08;24.30;99.90
35647;DHT22;28680;45.642;13.756;2023-09-12T07:30:34;24.40;99.90
35647;DHT22;28680;45.642;13.756;2023-09-12T07:33:00;24.80;99.90
35647;DHT22;28680;45.642;13.756;2023-09-12T07:35:27;25.20;99.90
35647;DHT22;28680;45.642;13.756;2023-09-12T07:37:53;25.00;99.90
35647;DHT22;28680;45.642;13.756;2023-09-12T07:40:19;25.10;99.90
35647;DHT22;28680;45.642;13.756;2023-09-12T07:42:45;24.90;99.90
35647;DHT22;28680;45.642;13.756;2023-09-12T07:45:10;25.00;99.90
35647;DHT22;28680;45.642;13.756;2023-09-12T07:47:37;25.30;99.90
35647;DHT22;28680;45.642;13.756;2023-09-12T07:50:03;25.40;99.90
35647;DHT22;28680;45.642;13.756;2023-09-12T07:52:29;25.90;99.90
35647;DHT22;28680;45.642;13.756;2023-09-12T07:55:03;26.00;99.90
35647;DHT22;28680;45.642;13.756;2023-09-12T07:57:29;26.00;99.90
35647;DHT22;28680;45.642;13.756;2023-09-12T07:59:56;26.20;99.90
35647;DHT22;28680;45.642;13.756;2023-09-12T08:02:22;26.50;99.90
35647;DHT22;28680;45.642;13.756;2023-09-12T08:04:49;26.60;99.90
35647;DHT22;28680;45.642;13.756;2023-09-12T08:07:19;26.70;99.90
35647;DHT22;28680;45.642;13.756;2023-09-12T08:09:51;26.80;99.90
35647;DHT22;28680;45.642;13.756;2023-09-12T08:12:18;26.80;99.90
35647;DHT22;28680;45.642;13.756;2023-09-12T08:14:45;27.00;99.90
35647;DHT22;28680;45.642;13.756;2023-09-12T08:17:11;26.90;99.90
35647;DHT22;28680;45.642;13.756;2023-09-12T08:19:37;26.70;99.90
35647;DHT22;28680;45.642;13.756;2023-09-12T08:22:04;26.60;99.90
35647;DHT22;28680;45.642;13.756;2023-09-12T08:24:30;26.60;99.90
35647;DHT22;28680;45.642;13.756;2023-09-12T08:26:55;26.90;99.90
35647;DHT22;28680;45.642;13.756;2023-09-12T08:29:21;27.40;99.90
35647;DHT22;28680;45.642;13.756;2023-09-12T08:31:47;27.70;99.90
35647;DHT22;28680;45.642;13.756;2023-09-12T08:34:13;27.60;99.90
35647;DHT22;28680;45.642;13.756;2023-09-12T08:36:39;27.50;99.90
35647;DHT22;28680;45.642;13.756;2023-09-12T08:39:05;27.50;99.90
35647;DHT22;28680;45.642;13.756;2023-09-12T08:41:34;27.80;99.90
35647;DHT22;28680;45.642;13.756;2023-09-12T08:44:01;27.60;99.90
35647;DHT22;28680;45.642;13.756;2023-09-12T08:46:27;27.40;99.90
35647;DHT22;28680;45.642;13.756;2023-09-12T08:48:56;27.60;99.90
35647;DHT22;28680;45.642;13.756;2023-09-12T08:51:23;27.80;99.90
35647;DHT22;28680;45.642;13.756;2023-09-12T08:53:52;28.10;99.90
35647;DHT22;28680;45.642;13.756;2023-09-12T08:56:18;27.80;99.90
35647;DHT22;28680;45.642;13.756;2023-09-12T08:58:44;27.80;99.90
35647;DHT22;28680;45.642;13.756;2023-09-12T09:01:13;27.60;99.90
35647;DHT22;28680;45.642;13.756;2023-09-12T09:03:42;27.20;99.90
35647;DHT22;28680;45.642;13.756;2023-09-12T09:06:11;27.20;99.90
35647;DHT22;28680;45.642;13.756;2023-09-12T09:08:38;27.00;99.90
35647;DHT22;28680;45.642;13.756;2023-09-12T09:11:04;27.30;99.90
35647;DHT22;28680;45.642;13.756;2023-09-12T09:13:32;27.40;99.90
35647;DHT22;28680;45.642;13.756;2023-09-12T09:16:10;27.50;99.90
35647;DHT22;28680;45.642;13.756;2023-09-12T09:21:19;27.70;99.90
35647;DHT22;28680;45.642;13.756;2023-09-12T09:23:48;28.80;99.90
35647;DHT22;28680;45.642;13.756;2023-09-12T09:26:14;28.80;99.90
35647;DHT22;28680;45.642;13.756;2023-09-12T09:28:39;28.80;99.90
35647;DHT22;28680;45.642;13.756;2023-09-12T09:31:10;28.60;99.90
35647;DHT22;28680;45.642;13.756;2023-09-12T09:33:37;28.30;99.90
35647;DHT22;28680;45.642;13.756;2023-09-12T09:36:07;28.70;99.90
35647;DHT22;28680;45.642;13.756;2023-09-12T09:38:36;28.80;99.90
35647;DHT22;28680;45.642;13.756;2023-09-12T09:41:06;28.60;99.90
35647;DHT22;28680;45.642;13.756;2023-09-12T09:43:32;28.30;99.90
35647;DHT22;28680;45.642;13.756;2023-09-12T09:45:58;28.40;99.90
35647;DHT22;28680;45.642;13.756;2023-09-12T09:48:26;28.30;99.90
35647;DHT22;28680;45.642;13.756;2023-09-12T09:50:53;28.60;99.90
35647;DHT22;28680;45.642;13.756;2023-09-12T09:53:29;28.60;99.90
35647;DHT22;28680;45.642;13.756;2023-09-12T09:56:11;28.70;99.90
35647;DHT22;28680;45.642;13.756;2023-09-12T09:59:06;29.50;99.90
35647;DHT22;28680;45.642;13.756;2023-09-12T10:01:34;29.90;99.90
35647;DHT22;28680;45.642;13.756;2023-09-12T10:04:01;29.70;99.90
35647;DHT22;28680;45.642;13.756;2023-09-12T10:06:28;29.10;99.90
35647;DHT22;28680;45.642;13.756;2023-09-12T10:08:56;28.80;99.90
35647;DHT22;28680;45.642;13.756;2023-09-12T10:11:25;28.30;99.90
35647;DHT22;28680;45.642;13.756;2023-09-12T10:13:57;28.80;99.90
35647;DHT22;28680;45.642;13.756;2023-09-12T10:16:32;29.20;99.90
35647;DHT22;28680;45.642;13.756;2023-09-12T10:21:32;28.80;99.90
35647;DHT22;28680;45.642;13.756;2023-09-12T10:24:00;29.50;99.90
35647;DHT22;28680;45.642;13.756;2023-09-12T10:26:30;29.60;99.90
35647;DHT22;28680;45.642;13.756;2023-09-12T10:28:57;29.00;99.90
35647;DHT22;28680;45.642;13.756;2023-09-12T10:31:25;28.80;99.90
35647;DHT22;28680;45.642;13.756;2023-09-12T10:33:52;28.60;99.90
35647;DHT22;28680;45.642;13.756;2023-09-12T10:36:19;28.60;99.90
35647;DHT22;28680;45.642;13.756;2023-09-12T10:38:48;29.40;99.90
35647;DHT22;28680;45.642;13.756;2023-09-12T10:41:15;30.30;99.90
35647;DHT22;28680;45.642;13.756;2023-09-12T10:43:42;30.40;99.90
35647;DHT22;28680;45.642;13.756;2023-09-12T10:46:09;30.80;99.90
35647;DHT22;28680;45.642;13.756;2023-09-12T10:48:36;30.40;99.90
35647;DHT22;28680;45.642;13.756;2023-09-12T10:51:02;30.00;99.90
35647;DHT22;28680;45.642;13.756;2023-09-12T10:53:32;30.00;99.90
35647;DHT22;28680;45.642;13.756;2023-09-12T10:58:33;28.90;99.90
35647;DHT22;28680;45.642;13.756;2023-09-12T11:01:21;28.80;99.90
35647;DHT22;28680;45.642;13.756;2023-09-12T11:03:47;28.80;99.90
35647;DHT22;28680;45.642;13.756;2023-09-12T11:06:29;29.20;99.90
35647;DHT22;28680;45.642;13.756;2023-09-12T11:09:22;29.50;99.90
35647;DHT22;28680;45.642;13.756;2023-09-12T11:11:56;30.10;99.90
35647;DHT22;28680;45.642;13.756;2023-09-12T11:14:22;30.30;99.90
35647;DHT22;28680;45.642;13.756;2023-09-12T11:19:47;30.90;99.90
35647;DHT22;28680;45.642;13.756;2023-09-12T11:22:22;31.10;99.90
35647;DHT22;28680;45.642;13.756;2023-09-12T11:24:48;31.40;99.90
35647;DHT22;28680;45.642;13.756;2023-09-12T11:27:14;31.20;99.90
35647;DHT22;28680;45.642;13.756;2023-09-12T11:29:40;30.90;99.90
35647;DHT22;28680;45.642;13.756;2023-09-12T11:32:07;30.60;99.90
35647;DHT22;28680;45.642;13.756;2023-09-12T11:34:38;29.50;99.90
35647;DHT22;28680;45.642;13.756;2023-09-12T11:37:06;28.90;99.90
35647;DHT22;28680;45.642;13.756;2023-09-12T11:39:34;29.50;99.90
35647;DHT22;28680;45.642;13.756;2023-09-12T11:42:03;28.90;99.90
35647;DHT22;28680;45.642;13.756;2023-09-12T11:44:30;29.20;99.90
35647;DHT22;28680;45.642;13.756;2023-09-12T11:47:01;29.90;99.90
35647;DHT22;28680;45.642;13.756;2023-09-12T11:49:41;30.10;99.90
35647;DHT22;28680;45.642;13.756;2023-09-12T11:52:13;30.30;99.90
35647;DHT22;28680;45.642;13.756;2023-09-12T11:54:40;29.20;99.90
35647;DHT22;28680;45.642;13.756;2023-09-12T11:57:10;29.50;99.90
35647;DHT22;28680;45.642;13.756;2023-09-12T11:59:39;28.90;99.90
35647;DHT22;28680;45.642;13.756;2023-09-12T12:02:08;28.80;99.90
35647;DHT22;28680;45.642;13.756;2023-09-12T12:04:35;30.60;99.90
35647;DHT22;28680;45.642;13.756;2023-09-12T12:07:03;31.20;99.90
35647;DHT22;28680;45.642;13.756;2023-09-12T12:09:32;31.10;99.90
35647;DHT22;28680;45.642;13.756;2023-09-12T12:12:24;30.40;99.90
35647;DHT22;28680;45.642;13.756;2023-09-12T12:14:50;30.40;99.90
35647;DHT22;28680;45.642;13.756;2023-09-12T12:17:16;31.70;99.90
35647;DHT22;28680;45.642;13.756;2023-09-12T12:19:45;30.50;99.90
35647;DHT22;28680;45.642;13.756;2023-09-12T12:22:11;29.30;99.90
35647;DHT22;28680;45.642;13.756;2023-09-12T12:24:42;28.70;99.90
35647;DHT22;28680;45.642;13.756;2023-09-12T12:27:08;28.50;99.90
35647;DHT22;28680;45.642;13.756;2023-09-12T12:29:37;28.50;99.90
35647;DHT22;28680;45.642;13.756;2023-09-12T12:32:05;28.30;99.90
35647;DHT22;28680;45.642;13.756;2023-09-12T12:34:31;28.30;99.90
35647;DHT22;28680;45.642;13.756;2023-09-12T12:36:57;28.90;99.90
35647;DHT22;28680;45.642;13.756;2023-09-12T12:39:23;28.90;99.90
35647;DHT22;28680;45.642;13.756;2023-09-12T12:41:52;29.00;99.90
35647;DHT22;28680;45.642;13.756;2023-09-12T12:44:19;28.90;99.90
35647;DHT22;28680;45.642;13.756;2023-09-12T12:46:52;28.80;99.90
35647;DHT22;28680;45.642;13.756;2023-09-12T12:49:19;29.70;99.90
35647;DHT22;28680;45.642;13.756;2023-09-12T12:51:47;29.60;99.90
35647;DHT22;28680;45.642;13.756;2023-09-12T12:54:13;29.00;99.90
35647;DHT22;28680;45.642;13.756;2023-09-12T12:56:39;29.30;99.90
35647;DHT22;28680;45.642;13.756;2023-09-12T12:59:06;29.20;99.90
35647;DHT22;28680;45.642;13.756;2023-09-12T13:01:37;29.60;99.90
35647;DHT22;28680;45.642;13.756;2023-09-12T13:04:08;29.80;99.90
35647;DHT22;28680;45.642;13.756;2023-09-12T13:06:34;29.80;99.90
35647;DHT22;28680;45.642;13.756;2023-09-12T13:09:04;30.30;99.90
35647;DHT22;28680;45.642;13.756;2023-09-12T13:11:34;32.30;99.90
35647;DHT22;28680;45.642;13.756;2023-09-12T13:14:01;31.70;99.90
35647;DHT22;28680;45.642;13.756;2023-09-12T13:16:27;32.40;99.90
35647;DHT22;28680;45.642;13.756;2023-09-12T13:18:53;33.10;99.90
35647;DHT22;28680;45.642;13.756;2023-09-12T13:21:19;31.50;99.90
35647;DHT22;28680;45.642;13.756;2023-09-12T14:31:55;31.00;99.90
35647;DHT22;28680;45.642;13.756;2023-09-12T14:34:24;31.30;99.90
35647;DHT22;28680;45.642;13.756;2023-09-12T14:36:54;31.90;99.90
35647;DHT22;28680;45.642;13.756;2023-09-12T14:39:21;32.40;99.90
35647;DHT22;28680;45.642;13.756;2023-09-12T14:41:47;32.10;99.90
35647;DHT22;28680;45.642;13.756;2023-09-12T14:44:24;31.70;99.90
35647;DHT22;28680;45.642;13.756;2023-09-12T14:46:50;30.60;99.90
35647;DHT22;28680;45.642;13.756;2023-09-12T14:49:16;30.80;99.90
35647;DHT22;28680;45.642;13.756;2023-09-12T14:51:42;30.90;99.90
35647;DHT22;28680;45.642;13.756;2023-09-12T14:54:09;30.80;99.90
35647;DHT22;28680;45.642;13.756;2023-09-12T14:56:35;30.60;99.90
35647;DHT22;28680;45.642;13.756;2023-09-12T14:59:03;30.10;99.90
35647;DHT22;28680;45.642;13.756;2023-09-12T15:01:29;29.80;99.90
35647;DHT22;28680;45.642;13.756;2023-09-12T15:03:55;30.20;99.90
35647;DHT22;28680;45.642;13.756;2023-09-12T15:06:20;30.60;99.90
35647;DHT22;28680;45.642;13.756;2023-09-12T15:08:46;30.60;99.90
35647;DHT22;28680;45.642;13.756;2023-09-12T15:11:12;30.40;99.90
35647;DHT22;28680;45.642;13.756;2023-09-12T15:13:38;30.60;99.90
35647;DHT22;28680;45.642;13.756;2023-09-12T15:16:04;30.70;99.90
35647;DHT22;28680;45.642;13.756;2023-09-12T15:18:30;30.50;99.90
35647;DHT22;28680;45.642;13.756;2023-09-12T15:20:57;30.20;99.90
35647;DHT22;28680;45.642;13.756;2023-09-12T15:23:23;30.40;99.90
35647;DHT22;28680;45.642;13.756;2023-09-12T15:25:52;29.90;99.90
35647;DHT22;28680;45.642;13.756;2023-09-12T15:28:18;29.70;99.90
35647;DHT22;28680;45.642;13.756;2023-09-12T15:30:44;30.00;99.90
35647;DHT22;28680;45.642;13.756;2023-09-12T15:33:10;30.00;99.90
35647;DHT22;28680;45.642;13.756;2023-09-12T15:35:36;29.80;99.90
35647;DHT22;28680;45.642;13.756;2023-09-12T15:38:02;29.90;99.90
35647;DHT22;28680;45.642;13.756;2023-09-12T15:40:28;30.00;99.90
35647;DHT22;28680;45.642;13.756;2023-09-12T15:42:54;30.40;99.90
35647;DHT22;28680;45.642;13.756;2023-09-12T15:45:20;30.60;99.90
35647;DHT22;28680;45.642;13.756;2023-09-12T15:47:46;30.60;99.90
35647;DHT22;28680;45.642;13.756;2023-09-12T15:50:12;30.60;99.90
35647;DHT22;28680;45.642;13.756;2023-09-12T15:52:39;30.20;99.90
35647;DHT22;28680;45.642;13.756;2023-09-12T15:55:06;29.90;99.90
35647;DHT22;28680;45.642;13.756;2023-09-12T15:57:32;29.60;99.90
35647;DHT22;28680;45.642;13.756;2023-09-12T15:59:57;29.30;99.90
35647;DHT22;28680;45.642;13.756;2023-09-12T16:02:25;29.40;99.90
35647;DHT22;28680;45.642;13.756;2023-09-12T16:04:50;29.70;99.90
35647;DHT22;28680;45.642;13.756;2023-09-12T16:07:16;29.50;99.90
35647;DHT22;28680;45.642;13.756;2023-09-12T16:09:42;29.10;99.90
35647;DHT22;28680;45.642;13.756;2023-09-12T16:12:08;29.00;99.90
35647;DHT22;28680;45.642;13.756;2023-09-12T16:14:33;29.00;99.90
35647;DHT22;28680;45.642;13.756;2023-09-12T16:16:59;29.00;99.90
35647;DHT22;28680;45.642;13.756;2023-09-12T16:19:26;29.40;99.90
35647;DHT22;28680;45.642;13.756;2023-09-12T16:21:52;29.50;99.90
35647;DHT22;28680;45.642;13.756;2023-09-12T16:24:18;29.60;99.90
35647;DHT22;28680;45.642;13.756;2023-09-12T16:26:44;29.20;99.90
35647;DHT22;28680;45.642;13.756;2023-09-12T16:29:10;28.80;99.90
35647;DHT22;28680;45.642;13.756;2023-09-12T16:31:36;28.50;99.90
35647;DHT22;28680;45.642;13.756;2023-09-12T16:34:02;28.10;99.90
35647;DHT22;28680;45.642;13.756;2023-09-12T16:36:28;27.80;99.90
35647;DHT22;28680;45.642;13.756;2023-09-12T16:38:54;28.00;99.90
35647;DHT22;28680;45.642;13.756;2023-09-12T16:41:19;28.10;99.90
35647;DHT22;28680;45.642;13.756;2023-09-12T16:43:45;28.20;99.90